Time;durP1;ratioP1;P1;durP2;ratioP2;P2;SDS_P1;SDS_P2;PMS_P1;PMS_P2;Temp;Humidity;BMP_temperature;BMP_pressure;BME280_temperature;BME280_humidity;BME280_pressure;Samples;Min_cycle;Max_cycle;Signal;HPM_P1;HPM_P2
2021/10/02 00:33:50;;;;;;;;;;;11.40;99.90;;;;;;5020823;28;19947;-89
2021/10/02 00:41:56;;;;;;;;;;;11.30;99.90;;;;;;5019462;28;19944;-89
2021/10/02 00:47:18;;;;;;;;;;;13.60;99.90;;;;;;5003907;28;20332;-89
2021/10/02 00:49:44;;;;;;;;;;;11.70;99.90;;;;;;5019230;28;19952;-89
2021/10/02 00:52:14;;;;;;;;;;;12.00;99.90;;;;;;5018341;28;19982;-89
2021/10/02 00:54:41;;;;;;;;;;;11.00;99.90;;;;;;5018696;28;19957;-89
2021/10/02 00:57:10;;;;;;;;;;;11.30;99.90;;;;;;5017936;28;19975;-89
2021/10/02 00:59:37;;;;;;;;;;;11.20;99.90;;;;;;5018651;28;19986;-89
2021/10/02 01:02:10;;;;;;;;;;;11.30;99.90;;;;;;5039188;28;19977;-90
2021/10/02 01:04:45;;;;;;;;;;;10.80;99.90;;;;;;5026445;28;19957;-89
2021/10/02 01:07:16;;;;;;;;;;;11.10;99.90;;;;;;5019948;28;19969;-89
2021/10/02 01:09:50;;;;;;;;;;;10.80;99.90;;;;;;5019566;28;20000;-89
2021/10/02 01:12:31;;;;;;;;;;;10.40;99.90;;;;;;5017600;28;19946;-89
2021/10/02 01:15:05;;;;;;;;;;;11.00;99.90;;;;;;5018940;28;19991;-90
2021/10/02 01:17:38;;;;;;;;;;;11.50;99.90;;;;;;5017682;28;19971;-89
2021/10/02 01:20:09;;;;;;;;;;;11.00;99.90;;;;;;5017266;28;19964;-89
2021/10/02 01:22:49;;;;;;;;;;;10.00;99.90;;;;;;5018511;28;19947;-89
2021/10/02 01:25:27;;;;;;;;;;;10.80;99.90;;;;;;5017562;28;20053;-89
2021/10/02 01:27:58;;;;;;;;;;;14.20;99.90;;;;;;5017328;28;19964;-89
2021/10/02 01:30:41;;;;;;;;;;;12.70;99.90;;;;;;5017863;28;19961;-89
2021/10/02 01:33:18;;;;;;;;;;;12.90;99.90;;;;;;5018127;28;19943;-89
2021/10/02 01:35:55;;;;;;;;;;;10.80;99.90;;;;;;5027067;28;19933;-89
2021/10/02 01:49:28;;;;;;;;;;;10.90;99.90;;;;;;5057394;28;19942;-89
2021/10/02 01:51:58;;;;;;;;;;;10.00;99.90;;;;;;5056988;28;19949;-89
2021/10/02 01:54:27;;;;;;;;;;;10.60;99.90;;;;;;5041505;28;20019;-89
2021/10/02 01:56:55;;;;;;;;;;;11.30;99.90;;;;;;5039516;28;19961;-89
2021/10/02 01:59:25;;;;;;;;;;;10.80;99.90;;;;;;5038335;28;19953;-90
2021/10/02 02:01:52;;;;;;;;;;;10.90;99.90;;;;;;5063154;22;19961;-83
2021/10/02 02:04:20;;;;;;;;;;;10.90;99.90;;;;;;5039875;28;19949;-83
2021/10/02 02:06:47;;;;;;;;;;;10.80;99.90;;;;;;5040201;28;19951;-84
2021/10/02 02:09:15;;;;;;;;;;;10.90;99.90;;;;;;5039256;28;19946;-84
2021/10/02 02:11:42;;;;;;;;;;;10.90;99.90;;;;;;5038959;28;19972;-84
2021/10/02 02:14:11;;;;;;;;;;;10.90;99.90;;;;;;5040010;28;20319;-83
2021/10/02 02:16:39;;;;;;;;;;;10.90;99.90;;;;;;5045999;28;19952;-83
2021/10/02 02:19:06;;;;;;;;;;;11.00;99.90;;;;;;5045625;28;19954;-83
2021/10/02 02:21:32;;;;;;;;;;;11.00;99.90;;;;;;5040770;28;19963;-84
2021/10/02 02:23:59;;;;;;;;;;;11.00;99.90;;;;;;5041372;28;19975;-83
2021/10/02 02:26:27;;;;;;;;;;;10.90;99.90;;;;;;5039075;28;20161;-83
2021/10/02 02:28:53;;;;;;;;;;;10.90;99.90;;;;;;5039077;28;20000;-84
2021/10/02 02:31:20;;;;;;;;;;;10.90;99.90;;;;;;5039814;28;20025;-83
2021/10/02 02:33:48;;;;;;;;;;;10.90;99.90;;;;;;5041810;28;20003;-84
2021/10/02 02:36:14;;;;;;;;;;;11.00;99.90;;;;;;5048086;28;19959;-83
2021/10/02 02:38:41;;;;;;;;;;;11.00;99.90;;;;;;5057118;28;19927;-83
2021/10/02 02:41:07;;;;;;;;;;;11.00;99.90;;;;;;5056365;28;19969;-83
2021/10/02 02:43:34;;;;;;;;;;;11.00;99.90;;;;;;5056679;28;20048;-83
2021/10/02 02:46:04;;;;;;;;;;;11.10;99.90;;;;;;5056237;28;19960;-83
2021/10/02 02:48:33;;;;;;;;;;;11.10;99.90;;;;;;5057159;28;19978;-83
2021/10/02 02:51:03;;;;;;;;;;;11.30;99.90;;;;;;5053472;28;19984;-82
2021/10/02 02:53:34;;;;;;;;;;;11.10;99.90;;;;;;5047885;28;19955;-83
2021/10/02 02:56:04;;;;;;;;;;;11.00;99.90;;;;;;5043556;28;19978;-84
2021/10/02 02:58:31;;;;;;;;;;;11.00;99.90;;;;;;5042356;28;19957;-84
2021/10/02 03:01:00;;;;;;;;;;;11.10;99.90;;;;;;5041683;28;19967;-83
2021/10/02 03:03:28;;;;;;;;;;;11.20;99.90;;;;;;5044102;28;20401;-83
2021/10/02 03:05:55;;;;;;;;;;;11.20;99.90;;;;;;5043222;28;20052;-83
2021/10/02 03:08:24;;;;;;;;;;;11.20;99.90;;;;;;5041195;28;20328;-83
2021/10/02 03:10:51;;;;;;;;;;;11.10;99.90;;;;;;5041068;28;19964;-83
2021/10/02 03:13:19;;;;;;;;;;;11.10;99.90;;;;;;5041701;28;19994;-83
2021/10/02 03:15:47;;;;;;;;;;;11.10;99.90;;;;;;5042174;28;19997;-84
2021/10/02 03:18:14;;;;;;;;;;;11.00;99.90;;;;;;5043496;28;20297;-83
2021/10/02 03:20:41;;;;;;;;;;;11.00;99.90;;;;;;5041199;28;19967;-83
2021/10/02 03:23:08;;;;;;;;;;;11.10;99.90;;;;;;5041710;28;19947;-83
2021/10/02 03:25:36;;;;;;;;;;;11.20;99.90;;;;;;5043659;28;20063;-84
2021/10/02 03:28:04;;;;;;;;;;;11.20;99.90;;;;;;5040273;28;20314;-83
2021/10/02 03:30:31;;;;;;;;;;;11.10;99.90;;;;;;5042767;28;20403;-83
2021/10/02 03:32:58;;;;;;;;;;;11.00;99.90;;;;;;5039662;28;19948;-84
2021/10/02 03:35:25;;;;;;;;;;;11.20;99.90;;;;;;5047981;28;20372;-84
2021/10/02 03:37:52;;;;;;;;;;;11.20;99.90;;;;;;5054962;28;20474;-84
2021/10/02 03:40:19;;;;;;;;;;;11.10;99.90;;;;;;5054894;28;20011;-84
2021/10/02 03:42:47;;;;;;;;;;;11.10;99.90;;;;;;5053853;28;20001;-84
2021/10/02 03:45:15;;;;;;;;;;;11.20;99.90;;;;;;5053042;28;20015;-84
2021/10/02 03:47:41;;;;;;;;;;;11.20;99.90;;;;;;5046015;28;19955;-86
2021/10/02 03:50:09;;;;;;;;;;;11.20;99.90;;;;;;5043394;28;19950;-86
2021/10/02 03:52:35;;;;;;;;;;;11.10;99.90;;;;;;5046643;28;19943;-86
2021/10/02 03:55:03;;;;;;;;;;;11.10;99.90;;;;;;5041056;28;19947;-86
2021/10/02 03:57:29;;;;;;;;;;;11.10;99.90;;;;;;5040328;28;20437;-86
2021/10/02 03:59:57;;;;;;;;;;;11.10;99.90;;;;;;5042164;28;20001;-86
2021/10/02 04:02:24;;;;;;;;;;;11.20;99.90;;;;;;5052523;28;19985;-86
2021/10/02 04:04:50;;;;;;;;;;;11.30;99.90;;;;;;5045777;28;19953;-86
2021/10/02 04:07:17;;;;;;;;;;;11.30;99.90;;;;;;5043994;28;19953;-86
2021/10/02 04:09:44;;;;;;;;;;;11.20;99.90;;;;;;5042953;28;19951;-86
2021/10/02 04:12:10;;;;;;;;;;;11.30;99.90;;;;;;5042022;28;19970;-86
2021/10/02 04:14:37;;;;;;;;;;;11.30;99.90;;;;;;5042841;28;19960;-86
2021/10/02 04:17:08;;;;;;;;;;;11.30;99.90;;;;;;5042208;28;19948;-86
2021/10/02 04:19:34;;;;;;;;;;;11.30;99.90;;;;;;5041981;28;19995;-86
2021/10/02 04:22:01;;;;;;;;;;;11.30;99.90;;;;;;5040538;28;20003;-86
2021/10/02 04:24:28;;;;;;;;;;;11.20;99.90;;;;;;5040116;28;19951;-86
2021/10/02 04:26:58;;;;;;;;;;;11.30;99.90;;;;;;5039987;28;20039;-86
2021/10/02 04:29:25;;;;;;;;;;;11.20;99.90;;;;;;5039425;28;19982;-86
2021/10/02 04:31:51;;;;;;;;;;;11.20;99.90;;;;;;5039017;28;20015;-86
2021/10/02 04:34:19;;;;;;;;;;;11.20;99.90;;;;;;5039036;28;20004;-85
2021/10/02 04:36:45;;;;;;;;;;;11.20;99.90;;;;;;5046513;28;19950;-85
2021/10/02 04:39:12;;;;;;;;;;;11.20;99.90;;;;;;5051526;28;19946;-85
2021/10/02 04:41:38;;;;;;;;;;;11.20;99.90;;;;;;5052696;28;19969;-85
2021/10/02 04:44:05;;;;;;;;;;;11.20;99.90;;;;;;5045848;28;19953;-86
2021/10/02 04:46:31;;;;;;;;;;;11.20;99.90;;;;;;5041539;28;19967;-86
2021/10/02 04:48:58;;;;;;;;;;;11.10;99.90;;;;;;5042542;28;19951;-86
2021/10/02 04:51:26;;;;;;;;;;;11.20;99.90;;;;;;5043417;28;19986;-86
2021/10/02 04:53:53;;;;;;;;;;;11.20;99.90;;;;;;5044374;28;19948;-85
2021/10/02 04:56:20;;;;;;;;;;;11.30;99.90;;;;;;5042769;28;19947;-86
2021/10/02 04:58:47;;;;;;;;;;;11.20;99.90;;;;;;5049306;28;20038;-86
2021/10/02 05:01:14;;;;;;;;;;;11.20;99.90;;;;;;5057045;28;19966;-87
2021/10/02 05:03:41;;;;;;;;;;;11.20;99.90;;;;;;5058640;28;19956;-87
2021/10/02 05:06:08;;;;;;;;;;;11.20;99.90;;;;;;5058102;28;19961;-87
2021/10/02 05:08:36;;;;;;;;;;;11.20;99.90;;;;;;5057415;28;19953;-87
2021/10/02 05:11:03;;;;;;;;;;;11.20;99.90;;;;;;5052582;28;19966;-87
2021/10/02 05:13:32;;;;;;;;;;;11.20;99.90;;;;;;5050986;28;20002;-86
2021/10/02 05:15:58;;;;;;;;;;;11.20;99.90;;;;;;5048048;28;19950;-86
2021/10/02 05:18:25;;;;;;;;;;;11.20;99.90;;;;;;5045260;28;19988;-86
2021/10/02 05:20:51;;;;;;;;;;;11.20;99.90;;;;;;5041073;28;19971;-87
2021/10/02 05:23:18;;;;;;;;;;;11.10;99.90;;;;;;5040822;28;19995;-86
2021/10/02 05:25:46;;;;;;;;;;;11.10;99.90;;;;;;5041767;28;20020;-87
2021/10/02 05:28:12;;;;;;;;;;;11.20;99.90;;;;;;5056915;28;19957;-87
2021/10/02 05:30:39;;;;;;;;;;;11.20;99.90;;;;;;5057636;28;20353;-87
2021/10/02 05:33:05;;;;;;;;;;;11.20;99.90;;;;;;5055369;28;19948;-87
2021/10/02 05:35:32;;;;;;;;;;;11.20;99.90;;;;;;5054003;28;19955;-87
2021/10/02 05:37:58;;;;;;;;;;;11.20;99.90;;;;;;5052491;28;19972;-87
2021/10/02 05:40:25;;;;;;;;;;;11.20;99.90;;;;;;5050121;28;19964;-87
2021/10/02 05:42:53;;;;;;;;;;;11.20;99.90;;;;;;5047306;28;19955;-87
2021/10/02 05:45:19;;;;;;;;;;;11.20;99.90;;;;;;5042622;28;19961;-87
2021/10/02 05:47:46;;;;;;;;;;;11.30;99.90;;;;;;5041465;28;19994;-88
2021/10/02 05:50:13;;;;;;;;;;;11.40;99.90;;;;;;5040389;28;19944;-87
2021/10/02 05:52:39;;;;;;;;;;;11.40;99.90;;;;;;5038020;28;19945;-88
2021/10/02 05:55:07;;;;;;;;;;;11.40;99.90;;;;;;5041505;28;19954;-87
2021/10/02 05:57:33;;;;;;;;;;;11.30;99.90;;;;;;5040420;28;19950;-88
2021/10/02 06:00:01;;;;;;;;;;;11.40;99.90;;;;;;5046234;28;19955;-87
2021/10/02 06:02:28;;;;;;;;;;;11.40;99.90;;;;;;5037792;28;20412;-88
2021/10/02 06:04:54;;;;;;;;;;;11.50;99.90;;;;;;5036656;28;19995;-87
2021/10/02 06:07:21;;;;;;;;;;;11.50;99.90;;;;;;5042125;28;19962;-88
2021/10/02 06:09:47;;;;;;;;;;;11.50;99.90;;;;;;5047231;28;19950;-88
2021/10/02 06:12:15;;;;;;;;;;;11.50;99.90;;;;;;5044930;28;19965;-87
2021/10/02 06:14:41;;;;;;;;;;;11.60;99.90;;;;;;5037927;28;20328;-87
2021/10/02 06:17:09;;;;;;;;;;;11.60;99.90;;;;;;5040986;28;20308;-88
2021/10/02 06:19:35;;;;;;;;;;;11.50;99.90;;;;;;5036954;28;20378;-88
2021/10/02 06:22:02;;;;;;;;;;;11.50;99.90;;;;;;5038006;28;19966;-88
2021/10/02 06:24:30;;;;;;;;;;;11.60;99.90;;;;;;5037394;28;19953;-88
2021/10/02 06:26:56;;;;;;;;;;;11.60;99.90;;;;;;5037728;28;19960;-88
2021/10/02 06:29:23;;;;;;;;;;;11.60;99.90;;;;;;5039328;28;19991;-88
2021/10/02 06:31:50;;;;;;;;;;;11.60;99.90;;;;;;5038107;28;19962;-88
2021/10/02 06:34:18;;;;;;;;;;;11.60;99.90;;;;;;5037202;28;19986;-88
2021/10/02 06:36:46;;;;;;;;;;;11.60;99.90;;;;;;5037601;28;19952;-89
2021/10/02 06:39:13;;;;;;;;;;;11.60;99.90;;;;;;5037861;28;19954;-88
2021/10/02 06:41:39;;;;;;;;;;;11.60;99.90;;;;;;5038197;28;19963;-88
2021/10/02 06:44:07;;;;;;;;;;;11.60;99.90;;;;;;5038269;28;20385;-88
2021/10/02 06:46:33;;;;;;;;;;;11.60;99.90;;;;;;5048273;28;19974;-88
2021/10/02 06:49:00;;;;;;;;;;;11.60;99.90;;;;;;5058328;28;19961;-87
2021/10/02 06:51:28;;;;;;;;;;;11.70;99.90;;;;;;5050097;28;19968;-88
2021/10/02 06:53:56;;;;;;;;;;;11.70;99.90;;;;;;5044869;28;19948;-88
2021/10/02 06:56:23;;;;;;;;;;;11.70;99.90;;;;;;5044650;28;19955;-89
2021/10/02 06:58:50;;;;;;;;;;;11.70;99.90;;;;;;5045631;28;20407;-89
2021/10/02 07:01:16;;;;;;;;;;;11.80;99.90;;;;;;5043811;28;20060;-89
2021/10/02 07:03:42;;;;;;;;;;;11.70;99.90;;;;;;5041493;28;19947;-88
2021/10/02 07:06:09;;;;;;;;;;;11.70;99.90;;;;;;5057767;28;19951;-89
2021/10/02 07:08:37;;;;;;;;;;;11.70;99.90;;;;;;5058639;28;19933;-89
2021/10/02 07:11:03;;;;;;;;;;;11.70;99.90;;;;;;5061840;28;19947;-88
2021/10/02 07:13:30;;;;;;;;;;;11.70;99.90;;;;;;5062661;28;19948;-88
2021/10/02 07:15:56;;;;;;;;;;;11.80;99.90;;;;;;5061672;28;19930;-88
2021/10/02 07:18:23;;;;;;;;;;;11.90;99.90;;;;;;5050583;28;19955;-89
2021/10/02 07:20:50;;;;;;;;;;;11.90;99.90;;;;;;5046463;28;19961;-88
2021/10/02 07:23:20;;;;;;;;;;;11.90;99.90;;;;;;5050558;28;19953;-88
2021/10/02 07:25:48;;;;;;;;;;;12.00;99.90;;;;;;5048601;28;20385;-89
2021/10/02 07:28:15;;;;;;;;;;;12.10;99.90;;;;;;5045274;28;19969;-89
2021/10/02 07:30:41;;;;;;;;;;;12.20;99.90;;;;;;5046447;28;20001;-88
2021/10/02 07:33:08;;;;;;;;;;;12.20;99.90;;;;;;5044164;28;20002;-88
2021/10/02 07:35:35;;;;;;;;;;;12.30;99.90;;;;;;5045348;28;20360;-88
2021/10/02 07:38:02;;;;;;;;;;;12.30;99.90;;;;;;5043572;28;19950;-88
2021/10/02 07:40:29;;;;;;;;;;;12.40;99.90;;;;;;5043404;28;20033;-89
2021/10/02 07:42:57;;;;;;;;;;;12.50;99.90;;;;;;5047574;28;19929;-88
2021/10/02 07:45:25;;;;;;;;;;;12.50;99.90;;;;;;5061058;28;19947;-88
2021/10/02 07:47:53;;;;;;;;;;;12.60;99.90;;;;;;5061903;28;19941;-87
2021/10/02 07:50:20;;;;;;;;;;;12.70;99.90;;;;;;5062081;28;19933;-87
2021/10/02 07:52:46;;;;;;;;;;;12.70;99.90;;;;;;5045571;28;19948;-88
2021/10/02 07:55:13;;;;;;;;;;;12.80;99.90;;;;;;5043932;28;19943;-88
2021/10/02 07:57:42;;;;;;;;;;;12.80;99.90;;;;;;5043390;28;20437;-88
2021/10/02 08:00:11;;;;;;;;;;;12.80;99.90;;;;;;5043840;28;20374;-88
2021/10/02 08:02:38;;;;;;;;;;;12.90;99.90;;;;;;5042658;28;20357;-88
2021/10/02 08:05:05;;;;;;;;;;;13.00;99.90;;;;;;5041777;28;20321;-88
2021/10/02 08:07:31;;;;;;;;;;;13.00;99.90;;;;;;5040588;28;20448;-89
2021/10/02 08:09:58;;;;;;;;;;;13.10;99.90;;;;;;5044880;28;19948;-88
2021/10/02 08:12:25;;;;;;;;;;;13.10;99.90;;;;;;5042921;28;19964;-88
2021/10/02 08:14:53;;;;;;;;;;;13.10;99.90;;;;;;5052526;28;19927;-88
2021/10/02 08:17:22;;;;;;;;;;;13.20;99.90;;;;;;5045785;28;19998;-88
2021/10/02 08:19:55;;;;;;;;;;;13.20;99.90;;;;;;5042241;28;19952;-89
2021/10/02 08:22:22;;;;;;;;;;;13.20;99.90;;;;;;5041004;28;19970;-89
2021/10/02 08:24:50;;;;;;;;;;;13.30;99.90;;;;;;5040760;28;19955;-88
2021/10/02 08:27:17;;;;;;;;;;;13.30;99.90;;;;;;5041524;28;20009;-88
2021/10/02 08:29:43;;;;;;;;;;;13.50;99.90;;;;;;5054376;28;19998;-88
2021/10/02 08:32:10;;;;;;;;;;;13.50;99.90;;;;;;5052055;28;19994;-88
2021/10/02 08:34:38;;;;;;;;;;;13.60;99.90;;;;;;5046782;28;19951;-88
2021/10/02 08:37:04;;;;;;;;;;;13.60;99.90;;;;;;5041359;28;19950;-87
2021/10/02 08:39:31;;;;;;;;;;;13.70;99.90;;;;;;5041608;28;19973;-88
2021/10/02 08:41:57;;;;;;;;;;;13.70;99.90;;;;;;5041241;28;19963;-89
2021/10/02 08:44:25;;;;;;;;;;;13.70;99.90;;;;;;5041474;28;20316;-88
2021/10/02 08:46:54;;;;;;;;;;;13.80;99.90;;;;;;5040564;28;19966;-88
2021/10/02 08:49:28;;;;;;;;;;;13.80;99.90;;;;;;5043937;28;19955;-89
2021/10/02 08:51:56;;;;;;;;;;;13.90;99.90;;;;;;5044501;28;19963;-88
2021/10/02 08:54:23;;;;;;;;;;;14.00;99.90;;;;;;5041054;28;19995;-89
2021/10/02 08:56:51;;;;;;;;;;;14.20;99.90;;;;;;5042425;28;19952;-89
2021/10/02 08:59:18;;;;;;;;;;;14.30;99.90;;;;;;5055542;28;20010;-89
2021/10/02 09:01:44;;;;;;;;;;;14.30;99.90;;;;;;5059435;28;19978;-88
2021/10/02 09:04:11;;;;;;;;;;;14.40;99.90;;;;;;5060342;28;19931;-89
2021/10/02 09:06:38;;;;;;;;;;;14.40;99.90;;;;;;5055600;28;19972;-88
2021/10/02 09:09:07;;;;;;;;;;;14.60;99.90;;;;;;5046923;28;19950;-88
2021/10/02 09:11:34;;;;;;;;;;;14.60;99.90;;;;;;5046461;28;19971;-90
2021/10/02 09:14:02;;;;;;;;;;;14.60;99.90;;;;;;5044973;28;19992;-89
2021/10/02 09:16:29;;;;;;;;;;;14.70;99.90;;;;;;5042806;28;20389;-89
2021/10/02 09:18:57;;;;;;;;;;;14.80;99.90;;;;;;5042504;28;20031;-88
2021/10/02 09:21:29;;;;;;;;;;;14.80;99.90;;;;;;5042634;28;20026;-89
2021/10/02 09:23:56;;;;;;;;;;;14.90;99.90;;;;;;5045897;28;19939;-88
2021/10/02 09:26:40;;;;;;;;;;;14.90;99.90;;;;;;5044584;28;19945;-89
2021/10/02 09:29:14;;;;;;;;;;;15.00;99.90;;;;;;5044834;28;20438;-88
2021/10/02 09:31:41;;;;;;;;;;;15.10;99.90;;;;;;5049154;28;19966;-88
2021/10/02 09:34:20;;;;;;;;;;;14.70;99.90;;;;;;5051315;28;19952;-88
2021/10/02 09:36:47;;;;;;;;;;;17.60;99.90;;;;;;5054566;28;19938;-88
2021/10/02 09:39:15;;;;;;;;;;;15.20;99.90;;;;;;5054196;28;20006;-88
2021/10/02 09:41:48;;;;;;;;;;;15.00;99.90;;;;;;5059641;28;19950;-90
2021/10/02 09:44:23;;;;;;;;;;;15.50;99.90;;;;;;5059361;28;19990;-88
2021/10/02 09:46:52;;;;;;;;;;;17.40;99.90;;;;;;5059554;28;19949;-91
2021/10/02 09:49:19;;;;;;;;;;;15.70;99.90;;;;;;5056809;28;19963;-88
2021/10/02 09:51:47;;;;;;;;;;;15.70;99.90;;;;;;5026893;28;19964;-88
2021/10/02 09:54:32;;;;;;;;;;;15.00;99.90;;;;;;5043286;28;19948;-89
2021/10/02 09:57:06;;;;;;;;;;;15.90;99.90;;;;;;5043308;28;19946;-89
2021/10/02 09:59:59;;;;;;;;;;;15.90;99.90;;;;;;5049191;28;20007;-88
2021/10/02 10:02:30;;;;;;;;;;;15.90;99.90;;;;;;5047520;28;20342;-89
2021/10/02 10:04:57;;;;;;;;;;;16.00;99.90;;;;;;5050327;28;20329;-89
2021/10/02 10:07:25;;;;;;;;;;;14.60;99.90;;;;;;5045649;28;20077;-88
2021/10/02 10:09:59;;;;;;;;;;;16.10;99.90;;;;;;5044580;28;19951;-90
2021/10/02 10:12:27;;;;;;;;;;;16.70;99.90;;;;;;5041021;28;20001;-88
2021/10/02 10:14:56;;;;;;;;;;;16.40;99.90;;;;;;5041282;28;19953;-89
2021/10/02 10:17:23;;;;;;;;;;;16.50;99.90;;;;;;5042689;28;20002;-89
2021/10/02 10:20:03;;;;;;;;;;;16.20;99.90;;;;;;5044559;28;19995;-89
2021/10/02 10:22:31;;;;;;;;;;;18.60;99.90;;;;;;5044653;28;19948;-90
2021/10/02 10:24:59;;;;;;;;;;;16.80;99.90;;;;;;5042020;28;19955;-88
2021/10/02 10:27:29;;;;;;;;;;;16.90;99.90;;;;;;5044285;28;20035;-85
2021/10/02 10:30:04;;;;;;;;;;;16.80;99.90;;;;;;5043932;28;19948;-85
2021/10/02 10:32:32;;;;;;;;;;;17.00;99.90;;;;;;5043812;28;19945;-84
2021/10/02 10:35:01;;;;;;;;;;;17.10;99.90;;;;;;5044236;28;20587;-85
2021/10/02 10:37:28;;;;;;;;;;;17.20;99.90;;;;;;5040404;28;19950;-85
2021/10/02 10:39:58;;;;;;;;;;;17.20;99.90;;;;;;5046736;28;19952;-86
2021/10/02 10:42:26;;;;;;;;;;;17.40;99.90;;;;;;5048256;28;19963;-84
2021/10/02 10:44:54;;;;;;;;;;;17.40;99.90;;;;;;5039982;28;19953;-86
2021/10/02 10:47:21;;;;;;;;;;;17.40;99.90;;;;;;5038768;28;20393;-84
2021/10/02 10:49:48;;;;;;;;;;;17.50;99.90;;;;;;5038622;28;19993;-85
2021/10/02 10:52:17;;;;;;;;;;;17.40;99.90;;;;;;5038413;28;20012;-86
2021/10/02 10:54:44;;;;;;;;;;;17.50;99.90;;;;;;5037777;28;19951;-85
2021/10/02 10:57:25;;;;;;;;;;;17.50;99.90;;;;;;5039134;28;19951;-85
2021/10/02 10:59:52;;;;;;;;;;;17.60;99.90;;;;;;5040517;28;19972;-85
2021/10/02 11:02:33;;;;;;;;;;;17.60;99.90;;;;;;5041961;28;19965;-85
2021/10/02 11:05:00;;;;;;;;;;;17.60;99.90;;;;;;5041171;28;19951;-85
2021/10/02 11:07:49;;;;;;;;;;;17.60;99.90;;;;;;5042742;28;19961;-85
2021/10/02 11:10:31;;;;;;;;;;;17.60;99.90;;;;;;5041555;28;19941;-85
2021/10/02 11:12:57;;;;;;;;;;;17.60;99.90;;;;;;5021936;28;19947;-85
2021/10/02 11:15:24;;;;;;;;;;;17.60;99.90;;;;;;5041425;28;20357;-85
2021/10/02 11:17:51;;;;;;;;;;;17.70;99.90;;;;;;5041318;28;19948;-86
2021/10/02 11:20:44;;;;;;;;;;;17.70;99.90;;;;;;5041173;28;19948;-86
2021/10/02 11:23:29;;;;;;;;;;;17.70;99.90;;;;;;5042661;28;19946;-86
2021/10/02 11:29:12;;;;;;;;;;;18.00;99.90;;;;;;5110428;28;20006;-85
2021/10/02 11:31:39;;;;;;;;;;;18.30;99.90;;;;;;5100538;28;19965;-85
2021/10/02 11:34:15;;;;;;;;;;;18.70;99.90;;;;;;5096598;28;20036;-85
2021/10/02 11:36:45;;;;;;;;;;;18.10;99.90;;;;;;5097352;28;19945;-86
2021/10/02 11:39:13;;;;;;;;;;;17.90;99.90;;;;;;5096444;28;19947;-86
2021/10/02 11:41:40;;;;;;;;;;;18.20;99.90;;;;;;5099288;28;19962;-86
2021/10/02 11:44:08;;;;;;;;;;;18.20;99.90;;;;;;5099288;28;19946;-86
2021/10/02 11:46:35;;;;;;;;;;;18.30;99.90;;;;;;5111239;28;19944;-85
2021/10/02 11:49:15;;;;;;;;;;;18.30;99.90;;;;;;5096890;28;19981;-86
2021/10/02 11:51:42;;;;;;;;;;;18.30;99.90;;;;;;5101112;28;19968;-85
2021/10/02 11:54:13;;;;;;;;;;;18.40;99.90;;;;;;5106323;28;19945;-86
2021/10/02 11:56:40;;;;;;;;;;;18.50;99.90;;;;;;5103623;28;19954;-85
2021/10/02 11:59:07;;;;;;;;;;;18.50;99.90;;;;;;5096183;28;19968;-85
2021/10/02 12:01:38;;;;;;;;;;;18.50;99.90;;;;;;5096781;28;19962;-85
2021/10/02 12:04:05;;;;;;;;;;;18.50;99.90;;;;;;5097895;28;19992;-86
2021/10/02 12:06:32;;;;;;;;;;;18.40;99.90;;;;;;5095443;28;20011;-85
2021/10/02 12:08:59;;;;;;;;;;;18.50;99.90;;;;;;5095611;28;20363;-85
2021/10/02 12:11:26;;;;;;;;;;;18.60;99.90;;;;;;5095707;28;19972;-85
2021/10/02 12:13:54;;;;;;;;;;;18.60;99.90;;;;;;5098705;28;19946;-85
2021/10/02 12:16:22;;;;;;;;;;;18.60;99.90;;;;;;5113474;28;19952;-85
2021/10/02 12:18:55;;;;;;;;;;;18.70;99.90;;;;;;5112086;28;19935;-86
2021/10/02 12:21:30;;;;;;;;;;;18.80;99.90;;;;;;5112811;28;19963;-85
2021/10/02 12:23:58;;;;;;;;;;;18.80;99.90;;;;;;5103954;28;19997;-85
2021/10/02 12:26:26;;;;;;;;;;;18.80;99.90;;;;;;5101087;28;19961;-85
2021/10/02 12:28:56;;;;;;;;;;;18.80;99.90;;;;;;5117487;28;19959;-86
2021/10/02 12:31:22;;;;;;;;;;;18.80;99.90;;;;;;5116873;28;19985;-85
2021/10/02 12:33:49;;;;;;;;;;;18.80;99.90;;;;;;5116285;28;19944;-85
2021/10/02 12:36:16;;;;;;;;;;;18.90;99.90;;;;;;5116701;28;19944;-85
2021/10/02 12:38:44;;;;;;;;;;;18.90;99.90;;;;;;5111833;28;20332;-85
2021/10/02 12:41:11;;;;;;;;;;;19.00;99.90;;;;;;5120969;28;19966;-85
2021/10/02 12:43:37;;;;;;;;;;;19.00;99.90;;;;;;5119987;28;19947;-83
2021/10/02 12:46:15;;;;;;;;;;;19.00;99.90;;;;;;5121115;28;20035;-83
2021/10/02 12:48:41;;;;;;;;;;;19.00;99.90;;;;;;5112027;28;20006;-85
2021/10/02 12:51:09;;;;;;;;;;;19.00;99.90;;;;;;5105289;28;20302;-85
2021/10/02 12:53:37;;;;;;;;;;;19.10;99.90;;;;;;5105087;28;20047;-85
2021/10/02 12:56:14;;;;;;;;;;;19.10;99.90;;;;;;5111823;28;20352;-86
2021/10/02 12:58:40;;;;;;;;;;;19.10;99.90;;;;;;5103495;28;19949;-85
2021/10/02 13:01:07;;;;;;;;;;;19.10;99.90;;;;;;5109586;28;19963;-85
2021/10/02 13:03:38;;;;;;;;;;;19.10;99.90;;;;;;5114977;28;19954;-85
2021/10/02 13:06:04;;;;;;;;;;;19.00;99.90;;;;;;5114905;28;20023;-85
2021/10/02 13:08:31;;;;;;;;;;;19.10;99.90;;;;;;5112132;28;19991;-85
2021/10/02 13:10:59;;;;;;;;;;;19.10;99.90;;;;;;5108778;28;19972;-85
2021/10/02 13:13:25;;;;;;;;;;;19.00;99.90;;;;;;5106518;28;19945;-85
2021/10/02 13:15:52;;;;;;;;;;;19.10;99.90;;;;;;5104962;28;19945;-88
2021/10/02 13:18:21;;;;;;;;;;;19.10;99.90;;;;;;5106617;28;19986;-84
2021/10/02 13:20:51;;;;;;;;;;;19.10;99.90;;;;;;5102400;28;20058;-86
2021/10/02 13:23:19;;;;;;;;;;;19.10;99.90;;;;;;5104898;28;19942;-86
2021/10/02 13:25:46;;;;;;;;;;;19.10;99.90;;;;;;5103494;28;19947;-86
2021/10/02 13:28:21;;;;;;;;;;;19.10;99.90;;;;;;5102549;28;19957;-84
2021/10/02 13:30:47;;;;;;;;;;;19.00;99.90;;;;;;5103096;28;19961;-86
2021/10/02 13:33:15;;;;;;;;;;;19.10;99.90;;;;;;5102081;28;19959;-86
2021/10/02 13:35:46;;;;;;;;;;;19.00;99.90;;;;;;5102609;28;19946;-86
2021/10/02 13:38:12;;;;;;;;;;;19.10;99.90;;;;;;5103403;28;20405;-83
2021/10/02 13:40:47;;;;;;;;;;;19.10;99.90;;;;;;5106387;28;19960;-86
2021/10/02 13:43:13;;;;;;;;;;;19.20;99.90;;;;;;5113836;28;19960;-88
2021/10/02 13:45:43;;;;;;;;;;;19.20;99.90;;;;;;5115788;28;19946;-88
2021/10/02 13:48:11;;;;;;;;;;;19.20;99.90;;;;;;5116871;28;19954;-86
2021/10/02 13:50:40;;;;;;;;;;;19.10;99.90;;;;;;5115538;28;19944;-86
2021/10/02 13:53:06;;;;;;;;;;;19.10;99.90;;;;;;5106616;28;20424;-87
2021/10/02 13:55:33;;;;;;;;;;;19.00;99.90;;;;;;5107413;28;19944;-86
2021/10/02 13:58:00;;;;;;;;;;;18.90;99.90;;;;;;5117384;28;19955;-86
2021/10/02 14:00:28;;;;;;;;;;;18.90;99.90;;;;;;5107759;28;19961;-86
2021/10/02 14:02:56;;;;;;;;;;;18.90;99.90;;;;;;5103911;28;19942;-86
2021/10/02 14:05:24;;;;;;;;;;;19.00;99.90;;;;;;5103897;28;19944;-86
2021/10/02 14:07:50;;;;;;;;;;;18.90;99.90;;;;;;5102839;28;19961;-87
2021/10/02 14:10:17;;;;;;;;;;;18.90;99.90;;;;;;5103951;28;20315;-86
2021/10/02 14:12:44;;;;;;;;;;;18.90;99.90;;;;;;5106090;28;19991;-85
2021/10/02 14:15:12;;;;;;;;;;;18.90;99.90;;;;;;5103679;28;19946;-87
2021/10/02 14:17:38;;;;;;;;;;;18.90;99.90;;;;;;5104211;28;19945;-86
2021/10/02 14:20:08;;;;;;;;;;;18.90;99.90;;;;;;5104483;28;19952;-83
2021/10/02 14:22:34;;;;;;;;;;;18.90;99.90;;;;;;5099329;28;19972;-80
2021/10/02 14:25:01;;;;;;;;;;;18.80;99.90;;;;;;5098070;28;19951;-80
2021/10/02 14:27:29;;;;;;;;;;;18.80;99.90;;;;;;5098306;28;20445;-80
2021/10/02 14:29:55;;;;;;;;;;;18.80;99.90;;;;;;5098684;28;19944;-80
2021/10/02 14:32:22;;;;;;;;;;;18.80;99.90;;;;;;5098299;28;20004;-81
2021/10/02 14:34:48;;;;;;;;;;;18.80;99.90;;;;;;5105624;28;19949;-79
2021/10/02 14:37:17;;;;;;;;;;;18.90;99.90;;;;;;5103915;28;19948;-80
2021/10/02 14:39:45;;;;;;;;;;;18.90;99.90;;;;;;5099686;28;19954;-79
2021/10/02 14:42:12;;;;;;;;;;;18.90;99.90;;;;;;5100211;28;20065;-79
2021/10/02 14:44:38;;;;;;;;;;;18.90;99.90;;;;;;5100596;28;20360;-79
2021/10/02 14:47:05;;;;;;;;;;;18.90;99.90;;;;;;5102163;28;19966;-80
2021/10/02 14:49:31;;;;;;;;;;;18.90;99.90;;;;;;5100729;28;19968;-79
2021/10/02 14:51:59;;;;;;;;;;;18.90;99.90;;;;;;5100624;28;19969;-79
2021/10/02 14:54:28;;;;;;;;;;;18.80;99.90;;;;;;5099258;28;19944;-80
2021/10/02 14:56:56;;;;;;;;;;;18.90;99.90;;;;;;5099606;28;20343;-80
2021/10/02 14:59:23;;;;;;;;;;;18.90;99.90;;;;;;5098368;28;19999;-80
2021/10/02 15:01:51;;;;;;;;;;;18.60;99.90;;;;;;5098767;28;19970;-79
2021/10/02 15:04:17;;;;;;;;;;;18.90;99.90;;;;;;5098608;28;19983;-80
2021/10/02 15:06:44;;;;;;;;;;;18.90;99.90;;;;;;5100770;28;20035;-80
2021/10/02 15:09:12;;;;;;;;;;;18.80;99.90;;;;;;5103082;28;20062;-80
2021/10/02 15:11:39;;;;;;;;;;;18.80;99.90;;;;;;5097315;28;19980;-80
2021/10/02 15:14:06;;;;;;;;;;;18.80;99.90;;;;;;5097664;28;19970;-79
2021/10/02 15:16:32;;;;;;;;;;;18.80;99.90;;;;;;5097407;28;19991;-80
2021/10/02 15:18:59;;;;;;;;;;;18.70;99.90;;;;;;5098245;28;19947;-80